Time,TemperatureF,DewpointF,PressureIn,WindDirection,WindDirectionDegrees,WindSpeedMPH,WindSpeedGustMPH,Humidity,HourlyPrecipIn,Conditions,Clouds,dailyrainin,SoftwareType,DateUTC
2013-11-17 00:01:00,45.1,44.0,29.77,South,178,7.0,10.0,96,0.01,,-RA,0.01,VWS V13.01,2013-11-17 05:01:00,
2013-11-17 00:07:00,45.2,44.1,29.77,South,184,9.0,10.0,96,0.02,,-RA,0.01,VWS V13.01,2013-11-17 05:07:00,
2013-11-17 00:12:00,45.2,44.1,29.77,South,183,9.0,11.0,96,0.03,,-RA,0.02,VWS V13.01,2013-11-17 05:12:00,
2013-11-17 00:17:00,45.3,44.2,29.77,South,180,8.0,11.0,96,0.03,,-RA,0.02,VWS V13.01,2013-11-17 05:17:00,
2013-11-17 00:22:00,45.3,44.2,29.76,South,184,9.0,10.0,96,0.04,,-RA,0.03,VWS V13.01,2013-11-17 05:22:00,
2013-11-17 00:27:00,45.5,44.7,29.75,South,170,7.0,10.0,97,0.05,,-RA,0.04,VWS V13.01,2013-11-17 05:27:00,
2013-11-17 00:32:00,45.5,44.4,29.75,SSE,163,7.0,9.0,96,0.06,,-RA,0.05,VWS V13.01,2013-11-17 05:32:00,
2013-11-17 00:37:00,45.6,44.8,29.74,SSE,159,9.0,9.0,97,0.06,,-RA,0.05,VWS V13.01,2013-11-17 05:37:00,
2013-11-17 00:42:00,45.8,45.0,29.74,SSE,159,8.0,10.0,97,0.06,,-RA,0.05,VWS V13.01,2013-11-17 05:42:00,
2013-11-17 00:47:00,46.0,45.2,29.74,SSE,159,8.0,11.0,97,0.07,,-RA,0.07,VWS V13.01,2013-11-17 05:47:00,
2013-11-17 00:52:00,46.2,45.4,29.73,SSE,164,11.0,12.0,97,0.08,,-RA,0.08,VWS V13.01,2013-11-17 05:52:00,
2013-11-17 00:57:00,46.3,45.5,29.73,SSE,150,11.0,13.0,97,0.09,,-RA,0.08,VWS V13.01,2013-11-17 05:57:00,
2013-11-17 01:02:00,46.4,45.6,29.72,SSE,161,9.0,13.0,97,0.09,,-RA,0.09,VWS V13.01,2013-11-17 06:02:00,
2013-11-17 01:07:00,46.4,45.6,29.72,SSE,168,9.0,11.0,97,0.10,,-RA,0.10,VWS V13.01,2013-11-17 06:07:00,
2013-11-17 01:12:00,46.1,45.3,29.72,South,173,6.0,9.0,97,0.10,,-RA,0.10,VWS V13.01,2013-11-17 06:12:00,
2013-11-17 01:17:00,45.7,44.6,29.72,South,174,5.0,7.0,96,0.11,,-RA,0.11,VWS V13.01,2013-11-17 06:17:00,
2013-11-17 01:22:00,45.5,44.7,29.71,South,173,5.0,7.0,97,0.11,,-RA,0.11,VWS V13.01,2013-11-17 06:22:00,
2013-11-17 01:27:00,45.5,44.7,29.71,South,186,6.0,7.0,97,0.11,,-RA,0.11,VWS V13.01,2013-11-17 06:27:00,
2013-11-17 01:32:00,45.8,45.0,29.70,SSE,160,6.0,8.0,97,0.07,,-RA,0.11,VWS V13.01,2013-11-17 06:32:00,
2013-11-17 01:37:00,46.1,45.3,29.69,SE,140,11.0,14.0,97,0.07,,-RA,0.11,VWS V13.01,2013-11-17 06:37:00,
2013-11-17 01:42:00,46.4,45.9,29.69,SE,142,13.0,15.0,98,0.07,,-RA,0.11,VWS V13.01,2013-11-17 06:42:00,
2013-11-17 01:47:00,46.5,46.0,29.69,SE,142,14.0,15.0,98,0.08,,-RA,0.12,VWS V13.01,2013-11-17 06:47:00,
2013-11-17 01:52:00,46.7,46.2,29.69,SE,139,14.0,17.0,98,0.08,,-RA,0.12,VWS V13.01,2013-11-17 06:52:00,
2013-11-17 01:57:00,46.7,46.2,29.68,SE,127,12.0,17.0,98,0.08,,-RA,0.12,VWS V13.01,2013-11-17 06:57:00,
2013-11-17 02:02:00,46.9,46.4,29.68,SE,146,14.0,20.0,98,0.03,,-RA,0.12,VWS V13.01,2013-11-17 07:02:00,
2013-11-17 02:07:00,47.0,46.5,29.68,SSE,148,8.0,18.0,98,0.03,,-RA,0.12,VWS V13.01,2013-11-17 07:07:00,
2013-11-17 02:12:00,46.7,46.2,29.68,SSE,167,8.0,12.0,98,0.03,,-RA,0.12,VWS V13.01,2013-11-17 07:12:00,
2013-11-17 02:17:00,46.4,45.6,29.69,SSW,194,7.0,12.0,97,0.03,,-RA,0.12,VWS V13.01,2013-11-17 07:17:00,
2013-11-17 02:22:00,45.9,45.1,29.68,SSW,205,6.0,8.0,97,0.03,,-RA,0.12,VWS V13.01,2013-11-17 07:22:00,
2013-11-17 02:27:00,45.9,45.1,29.68,SSW,202,5.0,7.0,97,0.03,,-RA,0.12,VWS V13.01,2013-11-17 07:27:00,
2013-11-17 02:32:00,45.9,45.1,29.68,South,178,6.0,10.0,97,0.02,,-RA,0.13,VWS V13.01,2013-11-17 07:32:00,
2013-11-17 02:37:00,46.2,45.7,29.67,South,171,6.0,10.0,98,0.04,,-RA,0.15,VWS V13.01,2013-11-17 07:37:00,
2013-11-17 02:42:00,46.0,45.2,29.68,South,178,5.0,8.0,97,0.04,,-RA,0.15,VWS V13.01,2013-11-17 07:42:00,
2013-11-17 02:47:00,45.6,44.8,29.67,South,174,5.0,8.0,97,0.05,,-RA,0.16,VWS V13.01,2013-11-17 07:47:00,
2013-11-17 02:52:00,45.5,44.7,29.67,South,177,5.0,7.0,97,0.05,,-RA,0.16,VWS V13.01,2013-11-17 07:52:00,
2013-11-17 02:57:00,46.1,45.6,29.66,SSE,158,9.0,10.0,98,0.05,,-RA,0.16,VWS V13.01,2013-11-17 07:57:00,
2013-11-17 03:02:00,46.4,45.9,29.67,SW,232,7.0,11.0,98,0.04,,OVC013,0.16,VWS V13.01,2013-11-17 08:02:00,
2013-11-17 03:07:00,45.8,45.3,29.66,SSW,213,4.0,10.0,98,0.04,,OVC013,0.16,VWS V13.01,2013-11-17 08:07:00,
2013-11-17 03:12:00,45.9,45.4,29.66,South,190,6.0,8.0,98,0.04,,OVC013,0.16,VWS V13.01,2013-11-17 08:12:00,
2013-11-17 03:17:00,45.5,45.0,29.66,SSW,207,3.0,7.0,98,0.04,,OVC013,0.16,VWS V13.01,2013-11-17 08:17:00,
2013-11-17 03:22:00,45.4,44.6,29.66,South,190,4.0,6.0,97,0.04,,OVC013,0.16,VWS V13.01,2013-11-17 08:22:00,
2013-11-17 03:27:00,45.4,44.6,29.66,SSW,198,5.0,6.0,97,0.04,,OVC013,0.16,VWS V13.01,2013-11-17 08:27:00,
2013-11-17 03:32:00,45.2,44.7,29.66,SW,222,5.0,7.0,98,0.04,,OVC013,0.16,VWS V13.01,2013-11-17 08:32:00,
2013-11-17 03:37:00,45.1,44.6,29.66,SW,219,3.0,6.0,98,0.04,,OVC013,0.16,VWS V13.01,2013-11-17 08:37:00,
2013-11-17 03:42:00,45.6,45.1,29.65,South,176,6.0,9.0,98,0.04,,OVC013,0.16,VWS V13.01,2013-11-17 08:42:00,
2013-11-17 03:47:00,45.9,45.4,29.65,South,180,8.0,9.0,98,0.04,,OVC013,0.16,VWS V13.01,2013-11-17 08:47:00,
2013-11-17 03:52:00,45.8,45.3,29.66,SSW,202,4.0,7.0,98,0.04,,OVC013,0.16,VWS V13.01,2013-11-17 08:52:00,
2013-11-17 03:57:00,46.2,45.7,29.66,SSW,198,8.0,10.0,98,0.04,,OVC013,0.16,VWS V13.01,2013-11-17 08:57:00,
2013-11-17 04:02:00,46.4,45.9,29.66,SSW,201,5.0,10.0,98,0.01,,OVC013,0.17,VWS V13.01,2013-11-17 09:02:00,
2013-11-17 04:07:00,46.4,45.9,29.66,SSW,193,10.0,12.0,98,0.01,,OVC013,0.17,VWS V13.01,2013-11-17 09:07:00,
2013-11-17 04:12:00,46.6,46.1,29.66,SSW,204,4.0,12.0,98,0.01,,OVC013,0.17,VWS V13.01,2013-11-17 09:12:00,
2013-11-17 04:17:00,46.7,46.2,29.65,SSW,195,7.0,10.0,98,0.01,,OVC013,0.17,VWS V13.01,2013-11-17 09:17:00,
2013-11-17 04:22:00,46.1,45.6,29.65,SSW,202,6.0,8.0,98,0.02,,OVC013,0.18,VWS V13.01,2013-11-17 09:22:00,
2013-11-17 04:27:00,46.0,45.5,29.66,SSW,197,5.0,6.0,98,0.02,,OVC013,0.18,VWS V13.01,2013-11-17 09:27:00,
2013-11-17 04:32:00,46.0,45.5,29.66,SSW,210,5.0,7.0,98,0.02,,OVC013,0.18,VWS V13.01,2013-11-17 09:32:00,
2013-11-17 04:37:00,45.8,45.3,29.66,SW,215,4.0,6.0,98,0.02,,OVC013,0.18,VWS V13.01,2013-11-17 09:37:00,
2013-11-17 04:42:00,45.8,45.3,29.66,SSW,201,4.0,6.0,98,0.02,,OVC013,0.18,VWS V13.01,2013-11-17 09:42:00,
2013-11-17 04:47:00,45.5,45.0,29.66,SSW,204,4.0,7.0,98,0.02,,OVC013,0.18,VWS V13.01,2013-11-17 09:47:00,
2013-11-17 04:52:00,45.3,44.8,29.66,SSW,201,4.0,6.0,98,0.02,,OVC013,0.18,VWS V13.01,2013-11-17 09:52:00,
2013-11-17 04:57:00,45.4,44.9,29.66,South,191,5.0,7.0,98,0.02,,OVC013,0.18,VWS V13.01,2013-11-17 09:57:00,
2013-11-17 05:02:00,45.2,44.7,29.66,SSW,192,3.0,6.0,98,0.02,,OVC026,0.18,VWS V13.01,2013-11-17 10:02:00,
2013-11-17 05:07:00,45.1,44.6,29.66,SSW,200,4.0,5.0,98,0.02,,OVC026,0.18,VWS V13.01,2013-11-17 10:07:00,
2013-11-17 05:12:00,45.3,44.8,29.65,SSW,200,4.0,5.0,98,0.02,,OVC026,0.18,VWS V13.01,2013-11-17 10:12:00,
2013-11-17 05:18:00,45.7,45.2,29.65,SSW,200,2.0,5.0,98,0.02,,OVC026,0.18,VWS V13.01,2013-11-17 10:18:00,
2013-11-17 05:23:00,45.5,45.0,29.65,SSW,200,3.0,4.0,98,0.02,,OVC026,0.18,VWS V13.01,2013-11-17 10:23:00,
2013-11-17 05:28:00,45.4,44.9,29.65,SSW,201,3.0,4.0,98,0.02,,OVC026,0.18,VWS V13.01,2013-11-17 10:28:00,
2013-11-17 05:33:00,45.4,44.9,29.66,WSW,248,6.0,7.0,98,0.00,,OVC026,0.18,VWS V13.01,2013-11-17 10:33:00,
2013-11-17 05:38:00,46.2,45.7,29.65,SW,228,6.0,8.0,98,0.00,,OVC026,0.18,VWS V13.01,2013-11-17 10:38:00,
2013-11-17 05:43:00,45.9,45.4,29.65,WSW,238,5.0,6.0,98,0.00,,OVC026,0.18,VWS V13.01,2013-11-17 10:43:00,
2013-11-17 05:48:00,46.0,45.5,29.65,WSW,238,5.0,6.0,98,0.00,,OVC026,0.18,VWS V13.01,2013-11-17 10:48:00,
2013-11-17 05:53:00,46.3,45.8,29.65,SW,229,3.0,5.0,98,0.00,,OVC026,0.18,VWS V13.01,2013-11-17 10:53:00,
2013-11-17 05:58:00,45.8,45.3,29.65,SW,229,3.0,5.0,98,0.00,,OVC026,0.18,VWS V13.01,2013-11-17 10:58:00,
2013-11-17 06:03:00,45.9,45.4,29.64,SSW,206,3.0,5.0,98,0.00,,OVC080,0.18,VWS V13.01,2013-11-17 11:03:00,
2013-11-17 06:08:00,46.0,45.5,29.64,SSW,197,4.0,6.0,98,0.00,,OVC080,0.18,VWS V13.01,2013-11-17 11:08:00,
2013-11-17 06:13:00,45.9,45.4,29.64,South,175,4.0,5.0,98,0.00,,OVC080,0.18,VWS V13.01,2013-11-17 11:13:00,
2013-11-17 06:18:00,45.8,45.3,29.63,SSE,166,4.0,4.0,98,0.00,,OVC080,0.18,VWS V13.01,2013-11-17 11:18:00,
2013-11-17 06:23:00,45.8,45.3,29.64,South,175,5.0,6.0,98,0.00,,OVC080,0.18,VWS V13.01,2013-11-17 11:23:00,
2013-11-17 06:28:00,46.0,45.5,29.64,SSE,165,6.0,7.0,98,0.00,,OVC080,0.18,VWS V13.01,2013-11-17 11:28:00,
2013-11-17 06:33:00,46.3,45.8,29.63,SSE,163,5.0,9.0,98,0.00,,OVC080,0.18,VWS V13.01,2013-11-17 11:33:00,
2013-11-17 06:38:00,46.8,46.3,29.63,SSE,165,5.0,11.0,98,0.00,,OVC080,0.18,VWS V13.01,2013-11-17 11:38:00,
2013-11-17 06:43:00,46.6,46.1,29.63,SSE,163,6.0,8.0,98,0.00,,OVC080,0.18,VWS V13.01,2013-11-17 11:43:00,
2013-11-17 06:48:00,46.7,46.2,29.63,SSE,164,6.0,9.0,98,0.00,,OVC080,0.18,VWS V13.01,2013-11-17 11:48:00,
2013-11-17 06:53:00,46.8,46.3,29.63,SSE,163,5.0,8.0,98,0.00,,OVC080,0.18,VWS V13.01,2013-11-17 11:53:00,
2013-11-17 06:58:00,46.5,46.0,29.63,SSE,155,6.0,8.0,98,0.00,,OVC080,0.18,VWS V13.01,2013-11-17 11:58:00,
2013-11-17 07:03:00,46.5,46.0,29.63,SSE,167,7.0,7.0,98,0.00,,OVC012,0.18,VWS V13.01,2013-11-17 12:03:00,
2013-11-17 07:08:00,46.7,46.2,29.63,South,182,6.0,9.0,98,0.00,,OVC012,0.18,VWS V13.01,2013-11-17 12:08:00,
2013-11-17 07:13:00,46.5,46.0,29.63,South,188,5.0,8.0,98,0.00,,OVC012,0.18,VWS V13.01,2013-11-17 12:13:00,
2013-11-17 07:18:00,47.2,46.7,29.63,South,182,9.0,11.0,98,0.00,,OVC012,0.18,VWS V13.01,2013-11-17 12:18:00,
2013-11-17 07:23:00,47.7,47.2,29.63,South,181,12.0,13.0,98,0.00,,OVC012,0.18,VWS V13.01,2013-11-17 12:23:00,
2013-11-17 07:28:00,48.0,47.7,29.63,South,171,11.0,13.0,99,0.09,,OVC012,0.27,VWS V13.01,2013-11-17 12:28:00,
2013-11-17 07:33:00,47.9,47.4,29.63,South,178,9.0,12.0,98,0.09,,OVC012,0.27,VWS V13.01,2013-11-17 12:33:00,
2013-11-17 07:38:00,47.4,46.9,29.63,SSE,165,5.0,12.0,98,0.09,,OVC012,0.27,VWS V13.01,2013-11-17 12:38:00,
2013-11-17 07:43:00,46.6,46.1,29.63,SSE,167,3.0,6.0,98,0.09,,OVC012,0.27,VWS V13.01,2013-11-17 12:43:00,
2013-11-17 07:48:00,46.2,45.7,29.63,SSE,167,3.0,4.0,98,0.09,,OVC012,0.27,VWS V13.01,2013-11-17 12:48:00,
2013-11-17 07:53:00,45.8,45.3,29.63,SSE,167,1.0,3.0,98,0.09,,OVC012,0.27,VWS V13.01,2013-11-17 12:53:00,
2013-11-17 07:58:00,45.5,45.0,29.63,SSE,167,1.0,2.0,98,0.09,,OVC012,0.27,VWS V13.01,2013-11-17 12:58:00,
2013-11-17 08:03:00,45.5,45.0,29.62,SSE,167,1.0,2.0,98,0.09,,OVC007,0.27,VWS V13.01,2013-11-17 13:03:00,
2013-11-17 08:08:00,45.8,45.3,29.62,SSE,167,0.0,2.0,98,0.09,,OVC007,0.27,VWS V13.01,2013-11-17 13:08:00,
2013-11-17 08:13:00,46.2,45.7,29.62,SSE,167,0.0,1.0,98,0.09,,OVC007,0.27,VWS V13.01,2013-11-17 13:13:00,
2013-11-17 08:18:00,46.5,46.0,29.60,East,91,5.0,5.0,98,0.09,,OVC007,0.27,VWS V13.01,2013-11-17 13:18:00,
2013-11-17 08:23:00,45.9,45.4,29.61,ESE,106,3.0,6.0,98,0.09,,OVC007,0.27,VWS V13.01,2013-11-17 13:23:00,
2013-11-17 08:28:00,45.5,45.0,29.61,ESE,106,2.0,3.0,98,0.09,,OVC007,0.27,VWS V13.01,2013-11-17 13:28:00,
2013-11-17 08:33:00,45.4,44.9,29.61,ESE,106,1.0,3.0,98,0.00,,OVC007,0.27,VWS V13.01,2013-11-17 13:33:00,
2013-11-17 08:38:00,45.5,45.0,29.60,ESE,107,2.0,3.0,98,0.00,,OVC007,0.27,VWS V13.01,2013-11-17 13:38:00,
2013-11-17 08:43:00,45.8,45.3,29.60,ESE,107,0.0,3.0,98,0.00,,OVC007,0.27,VWS V13.01,2013-11-17 13:43:00,
2013-11-17 08:48:00,45.8,45.3,29.60,South,173,3.0,3.0,98,0.00,,OVC007,0.27,VWS V13.01,2013-11-17 13:48:00,
2013-11-17 08:53:00,45.9,45.4,29.60,South,173,0.0,3.0,98,0.00,,OVC007,0.27,VWS V13.01,2013-11-17 13:53:00,
2013-11-17 08:58:00,46.3,45.8,29.60,South,173,3.0,3.0,98,0.00,,OVC007,0.27,VWS V13.01,2013-11-17 13:58:00,
2013-11-17 09:03:00,46.7,46.4,29.60,South,173,1.0,3.0,99,0.00,,OVC007,0.27,VWS V13.01,2013-11-17 14:03:00,
2013-11-17 09:08:00,46.3,45.8,29.60,South,173,3.0,3.0,98,0.00,,OVC007,0.27,VWS V13.01,2013-11-17 14:08:00,
2013-11-17 09:13:00,46.5,46.0,29.60,WSW,257,3.0,5.0,98,0.00,,OVC007,0.27,VWS V13.01,2013-11-17 14:13:00,
2013-11-17 09:18:00,46.4,45.9,29.60,WSW,257,2.0,5.0,98,0.00,,OVC007,0.27,VWS V13.01,2013-11-17 14:18:00,
2013-11-17 09:23:00,46.3,45.8,29.60,WSW,246,2.0,4.0,98,0.00,,OVC007,0.27,VWS V13.01,2013-11-17 14:23:00,
2013-11-17 09:28:00,45.9,45.4,29.60,WSW,246,1.0,3.0,98,0.00,,OVC007,0.27,VWS V13.01,2013-11-17 14:28:00,
2013-11-17 09:33:00,46.0,45.5,29.59,WSW,246,0.0,2.0,98,0.00,,OVC007,0.27,VWS V13.01,2013-11-17 14:33:00,
2013-11-17 09:38:00,46.1,45.6,29.60,WSW,246,0.0,2.0,98,0.00,,OVC007,0.27,VWS V13.01,2013-11-17 14:38:00,
2013-11-17 09:43:00,46.2,45.7,29.59,SSW,194,1.0,3.0,98,0.00,,OVC007,0.27,VWS V13.01,2013-11-17 14:43:00,
2013-11-17 09:48:00,46.6,46.1,29.59,SSW,194,2.0,4.0,98,0.00,,OVC007,0.27,VWS V13.01,2013-11-17 14:48:00,
2013-11-17 09:53:00,46.7,46.2,29.58,SSE,164,2.0,3.0,98,0.00,,OVC007,0.27,VWS V13.01,2013-11-17 14:53:00,
2013-11-17 09:58:00,46.8,46.3,29.58,SE,141,3.0,4.0,98,0.00,,OVC007,0.27,VWS V13.01,2013-11-17 14:58:00,
2013-11-17 10:03:00,47.0,46.5,29.58,SE,142,3.0,4.0,98,0.00,,OVC008,0.27,VWS V13.01,2013-11-17 15:03:00,
2013-11-17 10:08:00,46.7,46.2,29.58,South,173,4.0,5.0,98,0.00,,OVC008,0.27,VWS V13.01,2013-11-17 15:08:00,
2013-11-17 10:13:00,46.1,45.6,29.57,SSW,201,2.0,4.0,98,0.00,,OVC008,0.27,VWS V13.01,2013-11-17 15:13:00,
2013-11-17 10:18:00,46.3,45.8,29.57,SSW,201,1.0,3.0,98,0.00,,OVC008,0.27,VWS V13.01,2013-11-17 15:18:00,
2013-11-17 10:23:00,46.4,45.9,29.57,SSW,201,2.0,2.0,98,0.00,,OVC008,0.27,VWS V13.01,2013-11-17 15:23:00,
2013-11-17 10:28:00,46.8,46.3,29.57,South,182,2.0,2.0,98,0.00,,OVC008,0.27,VWS V13.01,2013-11-17 15:28:00,
2013-11-17 10:33:00,47.2,46.9,29.57,South,188,3.0,4.0,99,0.00,,OVC008,0.27,VWS V13.01,2013-11-17 15:33:00,
2013-11-17 10:39:00,48.0,47.7,29.56,SW,215,5.0,5.0,99,0.00,,OVC008,0.27,VWS V13.01,2013-11-17 15:39:00,
2013-11-17 10:44:00,47.3,46.8,29.57,SSE,167,5.0,5.0,98,0.00,,OVC008,0.27,VWS V13.01,2013-11-17 15:44:00,
2013-11-17 10:49:00,47.3,47.0,29.57,SE,144,9.0,10.0,99,0.00,,OVC008,0.27,VWS V13.01,2013-11-17 15:49:00,
2013-11-17 10:54:00,47.4,46.9,29.56,SE,144,10.0,12.0,98,0.00,,OVC008,0.27,VWS V13.01,2013-11-17 15:54:00,
2013-11-17 10:59:00,47.4,46.9,29.56,SE,136,11.0,12.0,98,0.00,,OVC008,0.27,VWS V13.01,2013-11-17 15:59:00,
2013-11-17 11:04:00,47.4,47.1,29.56,SE,141,10.0,13.0,99,0.00,,OVC009,0.27,VWS V13.01,2013-11-17 16:04:00,
2013-11-17 11:09:00,47.8,47.5,29.56,SSE,148,9.0,12.0,99,0.00,,OVC009,0.27,VWS V13.01,2013-11-17 16:09:00,
2013-11-17 11:14:00,46.9,46.4,29.55,SSE,167,4.0,9.0,98,0.00,,OVC009,0.27,VWS V13.01,2013-11-17 16:14:00,
2013-11-17 11:19:00,46.2,45.7,29.55,SSE,167,2.0,5.0,98,0.00,,OVC009,0.27,VWS V13.01,2013-11-17 16:19:00,
2013-11-17 11:24:00,46.1,45.6,29.54,SSE,167,4.0,4.0,98,0.00,,OVC009,0.27,VWS V13.01,2013-11-17 16:24:00,
2013-11-17 11:29:00,46.3,45.8,29.53,SE,141,7.0,8.0,98,0.00,,OVC009,0.27,VWS V13.01,2013-11-17 16:29:00,
2013-11-17 11:34:00,47.0,46.5,29.53,SE,140,10.0,10.0,98,0.00,,OVC009,0.27,VWS V13.01,2013-11-17 16:34:00,
2013-11-17 11:39:00,47.3,47.0,29.51,ESE,121,9.0,11.0,99,0.00,,OVC009,0.27,VWS V13.01,2013-11-17 16:39:00,
2013-11-17 11:44:00,47.8,47.5,29.50,SE,134,11.0,14.0,99,0.00,,OVC009,0.27,VWS V13.01,2013-11-17 16:44:00,
2013-11-17 11:49:00,48.0,47.7,29.50,SE,134,12.0,15.0,99,0.00,,OVC009,0.27,VWS V13.01,2013-11-17 16:49:00,
2013-11-17 11:54:00,47.8,47.5,29.50,SE,136,10.0,14.0,99,0.00,,OVC009,0.27,VWS V13.01,2013-11-17 16:54:00,
2013-11-17 11:59:00,47.6,47.1,29.50,SE,126,9.0,12.0,98,0.00,,OVC009,0.27,VWS V13.01,2013-11-17 16:59:00,
2013-11-17 12:04:00,47.2,46.9,29.49,SE,136,7.0,10.0,99,0.00,,RA,0.27,VWS V13.01,2013-11-17 17:04:00,
2013-11-17 12:09:00,47.1,46.6,29.49,SE,143,7.0,10.0,98,0.00,,RA,0.27,VWS V13.01,2013-11-17 17:09:00,
2013-11-17 12:14:00,46.8,46.3,29.49,SSE,159,4.0,8.0,98,0.00,,RA,0.27,VWS V13.01,2013-11-17 17:14:00,
2013-11-17 12:19:00,46.6,46.1,29.48,SSE,161,3.0,6.0,98,0.00,,RA,0.27,VWS V13.01,2013-11-17 17:19:00,
2013-11-17 12:24:00,46.4,45.9,29.48,SSE,168,2.0,4.0,98,0.00,,RA,0.27,VWS V13.01,2013-11-17 17:24:00,
2013-11-17 12:29:00,46.6,46.1,29.47,South,175,3.0,5.0,98,0.00,,RA,0.27,VWS V13.01,2013-11-17 17:29:00,
2013-11-17 12:34:00,46.8,46.3,29.46,SSE,152,4.0,5.0,98,0.00,,RA,0.27,VWS V13.01,2013-11-17 17:34:00,
2013-11-17 12:39:00,46.6,46.1,29.46,SSE,153,5.0,5.0,98,0.00,,RA,0.27,VWS V13.01,2013-11-17 17:39:00,
2013-11-17 12:44:00,46.9,46.4,29.45,SSE,154,8.0,10.0,98,0.00,,RA,0.27,VWS V13.01,2013-11-17 17:44:00,
2013-11-17 12:49:00,47.4,46.9,29.45,SSE,167,10.0,11.0,98,0.00,,RA,0.27,VWS V13.01,2013-11-17 17:49:00,
2013-11-17 12:54:00,47.4,46.9,29.45,SSE,163,7.0,10.0,98,0.00,,RA,0.27,VWS V13.01,2013-11-17 17:54:00,
2013-11-17 12:59:00,47.9,47.6,29.44,SSE,166,10.0,12.0,99,0.00,,RA,0.27,VWS V13.01,2013-11-17 17:59:00,
2013-11-17 13:04:00,48.1,47.6,29.43,SSE,153,11.0,13.0,98,0.00,,OVC009,0.27,VWS V13.01,2013-11-17 18:04:00,
2013-11-17 13:09:00,48.4,48.1,29.42,SSE,148,11.0,15.0,99,0.00,,OVC009,0.27,VWS V13.01,2013-11-17 18:09:00,
2013-11-17 13:14:00,48.5,48.2,29.42,SSE,148,13.0,15.0,99,0.00,,OVC009,0.27,VWS V13.01,2013-11-17 18:14:00,
2013-11-17 13:19:00,49.0,48.7,29.41,SSE,159,13.0,16.0,99,0.00,,OVC009,0.27,VWS V13.01,2013-11-17 18:19:00,
2013-11-17 13:24:00,49.4,48.9,29.40,SSE,159,12.0,16.0,98,0.00,,OVC009,0.27,VWS V13.01,2013-11-17 18:24:00,
2013-11-17 13:29:00,49.5,49.0,29.40,SSE,158,11.0,16.0,98,0.00,,OVC009,0.27,VWS V13.01,2013-11-17 18:29:00,
2013-11-17 13:34:00,49.3,48.8,29.39,SSE,165,10.0,14.0,98,0.00,,OVC009,0.27,VWS V13.01,2013-11-17 18:34:00,
2013-11-17 13:39:00,49.3,48.8,29.39,SSE,164,11.0,16.0,98,0.00,,OVC009,0.27,VWS V13.01,2013-11-17 18:39:00,
2013-11-17 13:44:00,49.1,48.3,29.39,SSE,168,11.0,13.0,97,0.00,,OVC009,0.27,VWS V13.01,2013-11-17 18:44:00,
2013-11-17 13:50:00,48.9,48.1,29.39,South,173,10.0,12.0,97,0.00,,OVC009,0.27,VWS V13.01,2013-11-17 18:50:00,
2013-11-17 13:55:00,48.7,47.9,29.38,SSE,167,10.0,11.0,97,0.00,,OVC009,0.27,VWS V13.01,2013-11-17 18:55:00,
2013-11-17 14:00:00,48.3,47.5,29.38,South,177,8.0,10.0,97,0.00,,OVC009,0.27,VWS V13.01,2013-11-17 19:00:00,
2013-11-17 14:05:00,48.5,47.7,29.38,SSE,163,8.0,12.0,97,0.00,,-RA,0.27,VWS V13.01,2013-11-17 19:05:00,
2013-11-17 14:10:00,48.7,47.9,29.37,South,170,8.0,11.0,97,0.00,,-RA,0.27,VWS V13.01,2013-11-17 19:10:00,
2013-11-17 14:15:00,48.5,47.7,29.37,South,175,8.0,12.0,97,0.00,,-RA,0.27,VWS V13.01,2013-11-17 19:15:00,
2013-11-17 14:20:00,48.2,47.4,29.36,South,172,10.0,10.0,97,0.00,,-RA,0.27,VWS V13.01,2013-11-17 19:20:00,
2013-11-17 14:25:00,48.6,47.8,29.36,South,181,10.0,13.0,97,0.00,,-RA,0.27,VWS V13.01,2013-11-17 19:25:00,
2013-11-17 14:30:00,48.8,48.0,29.35,SSE,167,10.0,14.0,97,0.00,,-RA,0.27,VWS V13.01,2013-11-17 19:30:00,
2013-11-17 14:35:00,49.0,48.2,29.35,SSE,159,11.0,14.0,97,0.00,,-RA,0.27,VWS V13.01,2013-11-17 19:35:00,
2013-11-17 14:40:00,49.3,48.5,29.35,South,182,16.0,17.0,97,0.00,,-RA,0.27,VWS V13.01,2013-11-17 19:40:00,
2013-11-17 14:45:00,49.1,48.0,29.34,South,172,13.0,15.0,96,0.00,,-RA,0.27,VWS V13.01,2013-11-17 19:45:00,
2013-11-17 14:50:00,49.2,48.1,29.34,South,169,13.0,17.0,96,0.00,,-RA,0.27,VWS V13.01,2013-11-17 19:50:00,
2013-11-17 14:55:00,49.2,48.4,29.33,SSE,159,12.0,15.0,97,0.00,,-RA,0.27,VWS V13.01,2013-11-17 19:55:00,
2013-11-17 15:00:00,49.1,48.0,29.32,SSE,156,9.0,14.0,96,0.00,,-RA,0.27,VWS V13.01,2013-11-17 20:00:00,
2013-11-17 15:05:00,49.0,48.2,29.32,SSE,149,13.0,15.0,97,0.00,,OVC013,0.27,VWS V13.01,2013-11-17 20:05:00,
2013-11-17 15:10:00,49.3,48.5,29.30,SSE,161,13.0,16.0,97,0.00,,OVC013,0.27,VWS V13.01,2013-11-17 20:10:00,
2013-11-17 15:15:00,49.1,48.3,29.30,SSE,155,13.0,18.0,97,0.00,,OVC013,0.27,VWS V13.01,2013-11-17 20:15:00,
2013-11-17 15:20:00,48.8,48.0,29.29,SE,146,12.0,16.0,97,0.00,,OVC013,0.27,VWS V13.01,2013-11-17 20:20:00,
2013-11-17 15:25:00,48.9,48.1,29.28,SE,146,13.0,17.0,97,0.00,,OVC013,0.27,VWS V13.01,2013-11-17 20:25:00,
2013-11-17 15:30:00,49.0,48.2,29.28,SE,137,12.0,17.0,97,0.00,,OVC013,0.27,VWS V13.01,2013-11-17 20:30:00,
2013-11-17 15:35:00,49.5,48.7,29.28,SSE,150,15.0,19.0,97,0.00,,OVC013,0.27,VWS V13.01,2013-11-17 20:35:00,
2013-11-17 15:40:00,49.6,48.8,29.27,SE,140,19.0,20.0,97,0.00,,OVC013,0.27,VWS V13.01,2013-11-17 20:40:00,
2013-11-17 15:45:00,49.7,48.9,29.26,SSE,148,21.0,21.0,97,0.00,,OVC013,0.27,VWS V13.01,2013-11-17 20:45:00,
2013-11-17 15:50:00,50.3,49.5,29.26,SE,144,18.0,22.0,97,0.00,,OVC013,0.27,VWS V13.01,2013-11-17 20:50:00,
2013-11-17 15:55:00,50.4,49.3,29.25,SSE,156,20.0,23.0,96,0.00,,OVC013,0.27,VWS V13.01,2013-11-17 20:55:00,
2013-11-17 16:00:00,50.6,49.5,29.25,SSE,150,21.0,24.0,96,0.00,,OVC013,0.27,VWS V13.01,2013-11-17 21:00:00,
2013-11-17 16:05:00,50.6,49.5,29.25,SE,142,18.0,25.0,96,0.00,,OVC012,0.27,VWS V13.01,2013-11-17 21:05:00,
2013-11-17 16:10:00,50.5,49.4,29.25,SSE,150,19.0,25.0,96,0.00,,OVC012,0.27,VWS V13.01,2013-11-17 21:10:00,
2013-11-17 16:15:00,50.7,49.6,29.25,SE,144,21.0,25.0,96,0.00,,OVC012,0.27,VWS V13.01,2013-11-17 21:15:00,
2013-11-17 16:20:00,50.5,49.4,29.25,SE,145,20.0,23.0,96,0.00,,OVC012,0.27,VWS V13.01,2013-11-17 21:20:00,
2013-11-17 16:25:00,50.6,49.5,29.24,SE,141,22.0,24.0,96,0.00,,OVC012,0.27,VWS V13.01,2013-11-17 21:25:00,
2013-11-17 16:30:00,50.2,49.1,29.22,SE,136,17.0,21.0,96,0.00,,OVC012,0.27,VWS V13.01,2013-11-17 21:30:00,
2013-11-17 16:35:00,50.0,49.2,29.20,SE,134,17.0,20.0,97,0.00,,OVC012,0.27,VWS V13.01,2013-11-17 21:35:00,
2013-11-17 16:40:00,49.7,48.9,29.19,SE,136,12.0,19.0,97,0.00,,OVC012,0.27,VWS V13.01,2013-11-17 21:40:00,
2013-11-17 16:45:00,49.5,48.7,29.19,SE,135,14.0,16.0,97,0.00,,OVC012,0.27,VWS V13.01,2013-11-17 21:45:00,
2013-11-17 16:50:00,49.3,48.5,29.19,SE,136,12.0,16.0,97,0.00,,OVC012,0.27,VWS V13.01,2013-11-17 21:50:00,
2013-11-17 16:56:00,48.8,48.0,29.18,SE,130,10.0,13.0,97,0.00,,OVC012,0.27,VWS V13.01,2013-11-17 21:56:00,
2013-11-17 17:01:00,49.1,48.3,29.17,SE,139,16.0,16.0,97,0.00,,OVC015,0.27,VWS V13.01,2013-11-17 22:01:00,
2013-11-17 17:06:00,49.3,48.8,29.16,SE,136,16.0,17.0,98,0.00,,OVC015,0.27,VWS V13.01,2013-11-17 22:06:00,
2013-11-17 17:11:00,49.7,49.2,29.16,SE,134,14.0,21.0,98,0.00,,OVC015,0.27,VWS V13.01,2013-11-17 22:11:00,
2013-11-17 17:16:00,49.8,49.3,29.15,SE,140,20.0,23.0,98,0.00,,OVC015,0.27,VWS V13.01,2013-11-17 22:16:00,
2013-11-17 17:21:00,50.3,49.8,29.14,SE,139,22.0,25.0,98,0.00,,OVC015,0.27,VWS V13.01,2013-11-17 22:21:00,
2013-11-17 17:26:00,50.0,49.5,29.16,SW,223,21.0,25.0,98,0.01,,OVC015,0.30,VWS V13.01,2013-11-17 22:26:00,
2013-11-17 17:31:00,50.1,49.6,29.22,WSW,240,20.0,23.0,98,0.07,,OVC015,0.34,VWS V13.01,2013-11-17 22:31:00,
2013-11-17 17:36:00,51.9,50.8,29.22,SW,228,18.0,28.0,96,0.07,,OVC015,0.35,VWS V13.01,2013-11-17 22:36:00,
2013-11-17 17:41:00,51.7,50.0,29.22,SW,222,19.0,22.0,94,0.08,,OVC015,0.35,VWS V13.01,2013-11-17 22:41:00,
2013-11-17 17:46:00,50.7,49.0,29.21,SW,215,17.0,19.0,94,0.09,,OVC015,0.36,VWS V13.01,2013-11-17 22:46:00,
2013-11-17 17:51:00,49.5,47.8,29.21,SSW,205,11.0,16.0,94,0.10,,OVC015,0.37,VWS V13.01,2013-11-17 22:51:00,
2013-11-17 17:56:00,49.0,47.6,29.19,SSW,212,9.0,12.0,95,0.11,,OVC015,0.38,VWS V13.01,2013-11-17 22:56:00,
2013-11-17 18:01:00,48.1,46.7,29.20,SSW,198,7.0,12.0,95,0.12,,,0.40,VWS V13.01,2013-11-17 23:01:00,
2013-11-17 18:06:00,47.6,46.5,29.19,South,187,10.0,11.0,96,0.14,,,0.41,VWS V13.01,2013-11-17 23:06:00,
2013-11-17 18:11:00,47.2,46.1,29.20,South,170,10.0,15.0,96,0.16,,,0.43,VWS V13.01,2013-11-17 23:11:00,
2013-11-17 18:16:00,47.0,45.9,29.18,SSE,153,9.0,13.0,96,0.19,,,0.46,VWS V13.01,2013-11-17 23:16:00,
2013-11-17 18:21:00,46.3,45.2,29.17,SSE,159,9.0,12.0,96,0.21,,,0.48,VWS V13.01,2013-11-17 23:21:00,
2013-11-17 18:26:00,46.2,45.4,29.19,SSE,165,10.0,13.0,97,0.23,,,0.50,VWS V13.01,2013-11-17 23:26:00,
2013-11-17 18:31:00,46.1,45.3,29.19,SSE,157,12.0,16.0,97,0.18,,,0.52,VWS V13.01,2013-11-17 23:31:00,
2013-11-17 18:36:00,45.8,45.0,29.17,SSE,147,10.0,15.0,97,0.20,,,0.54,VWS V13.01,2013-11-17 23:36:00,
2013-11-17 18:41:00,45.6,44.8,29.17,SSE,166,12.0,17.0,97,0.21,,,0.55,VWS V13.01,2013-11-17 23:41:00,
2013-11-17 18:46:00,45.5,44.7,29.15,SSE,153,12.0,15.0,97,0.22,,,0.56,VWS V13.01,2013-11-17 23:46:00,
2013-11-17 18:51:00,45.6,45.1,29.14,SSE,159,12.0,14.0,98,0.22,,,0.56,VWS V13.01,2013-11-17 23:51:00,
2013-11-17 18:56:00,45.7,45.2,29.14,SSE,159,11.0,14.0,98,0.22,,,0.56,VWS V13.01,2013-11-17 23:56:00,
2013-11-17 19:01:00,45.6,45.1,29.14,SSE,166,6.0,12.0,98,0.17,,-RA,0.56,VWS V13.01,2013-11-18 00:01:00,
2013-11-17 19:06:00,45.5,45.0,29.12,SSE,167,4.0,9.0,98,0.17,,-RA,0.56,VWS V13.01,2013-11-18 00:06:00,
2013-11-17 19:11:00,45.4,44.9,29.10,SSE,167,0.0,7.0,98,0.17,,-RA,0.56,VWS V13.01,2013-11-18 00:11:00,
2013-11-17 19:16:00,45.2,44.7,29.11,SSE,167,3.0,4.0,98,0.17,,-RA,0.56,VWS V13.01,2013-11-18 00:16:00,
2013-11-17 19:21:00,45.2,44.7,29.10,SSE,167,3.0,4.0,98,0.17,,-RA,0.56,VWS V13.01,2013-11-18 00:21:00,
2013-11-17 19:26:00,45.3,44.8,29.10,SSW,200,5.0,6.0,98,0.17,,-RA,0.56,VWS V13.01,2013-11-18 00:26:00,
2013-11-17 19:31:00,45.2,44.7,29.09,South,186,5.0,8.0,98,0.04,,-RA,0.56,VWS V13.01,2013-11-18 00:31:00,
2013-11-17 19:36:00,45.6,45.1,29.10,South,176,11.0,15.0,98,0.04,,-RA,0.56,VWS V13.01,2013-11-18 00:36:00,
2013-11-17 19:41:00,45.9,45.4,29.10,South,169,12.0,16.0,98,0.04,,-RA,0.56,VWS V13.01,2013-11-18 00:41:00,
2013-11-17 19:46:00,46.2,45.7,29.09,South,182,13.0,17.0,98,0.04,,-RA,0.56,VWS V13.01,2013-11-18 00:46:00,
2013-11-17 19:51:00,46.1,45.6,29.09,South,188,16.0,18.0,98,0.04,,-RA,0.56,VWS V13.01,2013-11-18 00:51:00,
2013-11-17 19:56:00,46.3,45.8,29.09,South,175,17.0,20.0,98,0.04,,-RA,0.56,VWS V13.01,2013-11-18 00:56:00,
2013-11-17 20:01:00,46.6,45.8,29.08,South,189,17.0,22.0,97,0.00,,OVC049,0.56,VWS V13.01,2013-11-18 01:01:00,
2013-11-17 20:06:00,46.4,45.3,29.09,South,189,14.0,19.0,96,0.00,,OVC049,0.56,VWS V13.01,2013-11-18 01:06:00,
2013-11-17 20:11:00,46.5,45.7,29.09,SSW,198,13.0,20.0,97,0.00,,OVC049,0.56,VWS V13.01,2013-11-18 01:11:00,
2013-11-17 20:16:00,46.8,45.7,29.08,SSW,193,13.0,22.0,96,0.00,,OVC049,0.56,VWS V13.01,2013-11-18 01:16:00,
2013-11-17 20:21:00,47.2,46.1,29.08,South,183,19.0,24.0,96,0.00,,OVC049,0.56,VWS V13.01,2013-11-18 01:21:00,
2013-11-17 20:26:00,47.0,45.9,29.08,South,185,21.0,24.0,96,0.00,,OVC049,0.56,VWS V13.01,2013-11-18 01:26:00,
2013-11-17 20:31:00,47.1,46.0,29.08,South,188,20.0,23.0,96,0.00,,OVC049,0.56,VWS V13.01,2013-11-18 01:31:00,
2013-11-17 20:36:00,47.2,46.1,29.08,South,182,16.0,21.0,96,0.00,,OVC049,0.56,VWS V13.01,2013-11-18 01:36:00,
2013-11-17 20:41:00,47.2,46.1,29.08,South,185,17.0,24.0,96,0.00,,OVC049,0.56,VWS V13.01,2013-11-18 01:41:00,
2013-11-17 20:46:00,47.0,45.7,29.09,SSW,198,13.0,20.0,95,0.00,,OVC049,0.56,VWS V13.01,2013-11-18 01:46:00,
2013-11-17 20:51:00,46.8,45.7,29.08,SSW,202,13.0,18.0,96,0.00,,OVC049,0.56,VWS V13.01,2013-11-18 01:51:00,
2013-11-17 20:56:00,47.0,45.9,29.08,SSW,199,15.0,20.0,96,0.01,,OVC049,0.57,VWS V13.01,2013-11-18 01:56:00,
2013-11-17 21:01:00,46.8,45.7,29.08,SSW,194,12.0,19.0,96,0.02,,-RA,0.58,VWS V13.01,2013-11-18 02:01:00,
2013-11-17 21:06:00,46.7,45.6,29.08,SSW,200,10.0,15.0,96,0.02,,-RA,0.63,VWS V13.01,2013-11-18 02:06:00,
2013-11-17 21:11:00,46.9,46.1,29.08,SSW,199,11.0,13.0,97,0.07,,-RA,0.63,VWS V13.01,2013-11-18 02:11:00,
2013-11-17 21:16:00,47.4,46.6,29.08,South,191,16.0,17.0,97,0.07,,-RA,0.63,VWS V13.01,2013-11-18 02:16:00,
2013-11-17 21:21:00,47.4,46.6,29.07,South,180,13.0,16.0,97,0.07,,-RA,0.63,VWS V13.01,2013-11-18 02:21:00,
2013-11-17 21:26:00,47.8,47.0,29.07,SSW,202,10.0,16.0,97,0.07,,-RA,0.63,VWS V13.01,2013-11-18 02:26:00,
2013-11-17 21:31:00,47.8,47.0,29.07,SSW,211,8.0,13.0,97,0.07,,-RA,0.63,VWS V13.01,2013-11-18 02:31:00,
2013-11-17 21:36:00,47.1,46.0,29.08,SW,219,8.0,10.0,96,0.08,,-RA,0.64,VWS V13.01,2013-11-18 02:36:00,
2013-11-17 21:41:00,46.9,46.1,29.07,South,184,9.0,10.0,97,0.08,,-RA,0.64,VWS V13.01,2013-11-18 02:41:00,
2013-11-17 21:46:00,47.0,46.2,29.07,SSW,207,10.0,11.0,97,0.08,,-RA,0.64,VWS V13.01,2013-11-18 02:46:00,
2013-11-17 21:51:00,46.9,45.8,29.07,South,189,9.0,11.0,96,0.08,,-RA,0.64,VWS V13.01,2013-11-18 02:51:00,
2013-11-17 21:56:00,46.7,45.9,29.07,SSW,198,7.0,10.0,97,0.08,,-RA,0.64,VWS V13.01,2013-11-18 02:56:00,
2013-11-17 22:01:00,46.6,45.8,29.07,SSW,197,6.0,9.0,97,0.06,,-RA,0.64,VWS V13.01,2013-11-18 03:01:00,
2013-11-17 22:06:00,46.5,45.7,29.07,SSW,200,7.0,9.0,97,0.06,,-RA,0.64,VWS V13.01,2013-11-18 03:06:00,
2013-11-17 22:11:00,47.3,46.5,29.06,SW,221,9.0,14.0,97,0.06,,-RA,0.64,VWS V13.01,2013-11-18 03:11:00,
2013-11-17 22:16:00,47.6,46.8,29.06,SW,218,14.0,14.0,97,0.06,,-RA,0.64,VWS V13.01,2013-11-18 03:16:00,
2013-11-17 22:21:00,47.8,46.7,29.06,SSW,208,13.0,15.0,96,0.06,,-RA,0.64,VWS V13.01,2013-11-18 03:21:00,
2013-11-17 22:27:00,47.7,46.6,29.06,SW,218,9.0,13.0,96,0.06,,-RA,0.64,VWS V13.01,2013-11-18 03:27:00,
2013-11-17 22:32:00,47.4,46.3,29.06,SW,215,9.0,13.0,96,0.01,,-RA,0.64,VWS V13.01,2013-11-18 03:32:00,
2013-11-17 22:37:00,46.9,45.8,29.07,SW,215,8.0,11.0,96,0.01,,-RA,0.64,VWS V13.01,2013-11-18 03:37:00,
2013-11-17 22:42:00,46.9,45.8,29.07,WSW,252,7.0,12.0,96,0.03,,-RA,0.66,VWS V13.01,2013-11-18 03:42:00,
2013-11-17 22:47:00,46.8,46.0,29.08,WSW,251,7.0,12.0,97,0.05,,-RA,0.70,VWS V13.01,2013-11-18 03:47:00,
2013-11-17 22:52:00,49.0,48.5,29.09,WSW,241,6.0,22.0,98,0.10,,-RA,0.73,VWS V13.01,2013-11-18 03:52:00,
2013-11-17 22:57:00,49.6,49.1,29.10,WNW,303,12.0,19.0,98,0.10,,-RA,0.73,VWS V13.01,2013-11-18 03:57:00,
2013-11-17 23:02:00,50.1,48.4,29.11,WNW,295,12.0,18.0,94,0.10,,RA,0.74,VWS V13.01,2013-11-18 04:02:00,
2013-11-17 23:07:00,50.1,47.6,29.11,WNW,286,9.0,16.0,91,0.10,,RA,0.74,VWS V13.01,2013-11-18 04:07:00,
2013-11-17 23:12:00,49.9,47.4,29.12,NW,306,6.0,20.0,91,0.10,,RA,0.74,VWS V13.01,2013-11-18 04:12:00,
2013-11-17 23:17:00,49.8,47.6,29.14,NNW,330,7.0,18.0,92,0.10,,RA,0.74,VWS V13.01,2013-11-18 04:17:00,
2013-11-17 23:22:00,49.5,47.3,29.14,WNW,287,13.0,15.0,92,0.10,,RA,0.74,VWS V13.01,2013-11-18 04:22:00,
2013-11-17 23:27:00,49.4,46.9,29.15,NW,319,7.0,23.0,91,0.10,,RA,0.74,VWS V13.01,2013-11-18 04:27:00,
2013-11-17 23:32:00,49.1,46.6,29.16,WNW,292,7.0,20.0,91,0.10,,RA,0.74,VWS V13.01,2013-11-18 04:32:00,
2013-11-17 23:37:00,48.8,46.3,29.17,WNW,286,13.0,17.0,91,0.11,,RA,0.75,VWS V13.01,2013-11-18 04:37:00,
2013-11-17 23:42:00,48.7,45.9,29.18,West,271,12.0,15.0,90,0.11,,RA,0.75,VWS V13.01,2013-11-18 04:42:00,
2013-11-17 23:47:00,48.6,45.5,29.19,West,261,13.0,28.0,89,0.11,,RA,0.75,VWS V13.01,2013-11-18 04:47:00,
2013-11-17 23:52:00,48.3,45.2,29.20,NW,306,10.0,18.0,89,0.11,,RA,0.75,VWS V13.01,2013-11-18 04:52:00,
2013-11-17 23:57:00,48.1,45.3,29.21,West,263,13.0,24.0,90,0.11,,RA,0.75,VWS V13.01,2013-11-18 04:57:00,